Pine Mountain Valley, Georgia
Current Conditions -  °F | °C
As of 7:51 AM on Friday 24 Oct 2014 (Local Time) from KCSG Reporting Station
Clear Clear  
Wind Chill: 48°   Ceiling: Unl
Heat Index: 48°   Visibility: 10mi
Dew Point: 44°   Wind: 0mph
Humidity: 86%   Direction: NA
Pressure: 30.06"   Gusts: NA
Location:  32.8°N, 84.82°W
Report Text: KCSG 241151Z AUTO 00000KT 10SM CLR 09/07 A3006 RMK AO2 SLP179 T00890067 10128 20089 53008
Loading
Personal Weather Stations






























Interactive Weather Map
Tropical Storm Tracking
New forecast layout! Learn more

10-Day Weather Forecast

Advertisements
Track Severe Weather on mobile